Terminal Aerodrome Forecast
Issued by NWS

Home | Current Version | Previous Version | Text Only | Print | Product List | Glossary On
Versions: 1 2 3 4 5 6 7 8 9 10 11 12 13 14 15 16 17 18 19 20 21 22 23 24 25 26 27
000
FTUS41 KGYX 171120
TAFPSM
TAF
KPSM 171120Z 1712/1812 VRB03KT 1 1/2SM -SN OVC003
     FM171230 VRB03KT 1/2SM SN VV003
     FM171600 VRB04KT 1 1/2SM -SN BR OVC005
     FM180200 30005KT P6SM -SHSN OVC012
     FM180400 30005KT P6SM SKC=

USA.gov is the U.S. government's official web portal to all federal, state and local government web resources and services.